Time;durP1;ratioP1;P1;durP2;ratioP2;P2;SDS_P1;SDS_P2;PMS_P1;PMS_P2;Temp;Humidity;BMP_temperature;BMP_pressure;BME280_temperature;BME280_humidity;BME280_pressure;Samples;Min_cycle;Max_cycle;Signal;HPM_P1;HPM_P2
2021/12/19 00:01:20;;;;;;;9.43;3.95;;;7.60;99.90;;;;;;5009216;28;20080;-73
2021/12/19 00:04:18;;;;;;;10.73;4.32;;;8.00;99.90;;;;;;5009601;28;20048;-74
2021/12/19 00:09:29;;;;;;;10.05;4.30;;;7.60;99.90;;;;;;5027447;28;20401;-74
2021/12/19 00:11:55;;;;;;;13.07;4.22;;;8.40;99.90;;;;;;5010262;28;20068;-73
2021/12/19 00:14:23;;;;;;;12.68;4.55;;;7.60;99.90;;;;;;5011268;28;20146;-74
2021/12/19 00:16:50;;;;;;;12.65;4.60;;;7.60;99.90;;;;;;5009652;28;20187;-73
2021/12/19 00:19:16;;;;;;;11.30;4.47;;;7.60;99.90;;;;;;5009900;28;20041;-73
2021/12/19 00:21:44;;;;;;;10.00;5.05;;;7.60;99.90;;;;;;5010223;28;20053;-73
2021/12/19 00:24:10;;;;;;;12.05;5.07;;;7.20;99.90;;;;;;5011029;28;20504;-73
2021/12/19 00:26:36;;;;;;;10.93;5.00;;;7.60;99.90;;;;;;5010544;28;20049;-73
2021/12/19 00:29:05;;;;;;;12.75;5.18;;;7.60;99.90;;;;;;5009809;28;20788;-73
2021/12/19 00:31:32;;;;;;;15.15;6.20;;;7.60;99.90;;;;;;5010164;28;20053;-73
2021/12/19 00:33:57;;;;;;;16.05;6.95;;;7.60;99.90;;;;;;5011382;28;20168;-73
2021/12/19 00:36:23;;;;;;;12.40;5.53;;;7.60;99.90;;;;;;5009476;28;20507;-73
2021/12/19 00:38:49;;;;;;;13.70;6.25;;;7.60;99.90;;;;;;5011464;28;20037;-74
2021/12/19 00:41:15;;;;;;;19.00;6.97;;;7.60;99.90;;;;;;5022559;28;20045;-74
2021/12/19 00:46:09;;;;;;;14.27;6.40;;;7.60;99.90;;;;;;5026908;28;20049;-74
2021/12/19 00:48:39;;;;;;;13.27;6.38;;;7.60;99.90;;;;;;5011622;28;20042;-73
2021/12/19 00:51:06;;;;;;;11.40;5.45;;;7.60;99.90;;;;;;5011184;28;20108;-74
2021/12/19 00:53:32;;;;;;;12.02;4.55;;;7.60;99.90;;;;;;5010981;28;20046;-73
2021/12/19 00:55:58;;;;;;;12.32;4.53;;;7.60;99.90;;;;;;5011331;28;20100;-74
2021/12/19 00:58:24;;;;;;;9.40;3.38;;;7.70;99.90;;;;;;5026147;28;20042;-73
2021/12/19 01:00:50;;;;;;;9.40;3.33;;;7.60;99.90;;;;;;5010705;28;20513;-73
2021/12/19 01:03:16;;;;;;;7.25;2.95;;;7.70;99.90;;;;;;5009105;28;20077;-74
2021/12/19 01:05:42;;;;;;;9.25;2.90;;;7.70;99.90;;;;;;5011048;28;20092;-74
2021/12/19 01:08:11;;;;;;;5.18;2.25;;;7.40;99.90;;;;;;5009604;28;20077;-74
2021/12/19 01:10:38;;;;;;;8.43;2.40;;;7.60;99.90;;;;;;5011507;28;20066;-73
2021/12/19 01:13:04;;;;;;;5.30;1.73;;;7.60;99.90;;;;;;5009406;28;20050;-73
2021/12/19 01:15:31;;;;;;;7.55;2.28;;;7.60;99.90;;;;;;5011649;28;20049;-74
2021/12/19 01:17:57;;;;;;;5.75;1.95;;;7.60;99.90;;;;;;5010429;28;20497;-74
2021/12/19 01:20:26;;;;;;;6.20;1.65;;;7.60;99.90;;;;;;5009669;28;20057;-73
2021/12/19 01:22:52;;;;;;;4.13;1.55;;;7.70;99.90;;;;;;4995870;28;20045;-74
2021/12/19 01:25:18;;;;;;;5.63;1.15;;;7.60;99.90;;;;;;5010241;28;20049;-74
2021/12/19 01:27:45;;;;;;;3.90;1.13;;;7.50;99.90;;;;;;4994384;28;20504;-73
2021/12/19 01:30:11;;;;;;;4.38;1.42;;;7.50;99.90;;;;;;4990386;28;20093;-74
2021/12/19 01:32:38;;;;;;;3.22;0.90;;;7.50;99.90;;;;;;5007078;28;20056;-73
2021/12/19 01:35:05;;;;;;;3.78;1.25;;;7.50;99.90;;;;;;5009796;28;20053;-73
2021/12/19 01:37:31;;;;;;;8.23;1.48;;;7.50;99.90;;;;;;5009635;28;20062;-74
2021/12/19 01:39:56;;;;;;;4.25;1.35;;;7.50;99.90;;;;;;5013618;28;20496;-74
2021/12/19 01:42:30;;;;;;;2.85;1.10;;;7.50;99.90;;;;;;5013539;28;20529;-74
2021/12/19 01:44:56;;;;;;;4.73;1.27;;;7.50;99.90;;;;;;5012520;28;20474;-74
2021/12/19 01:47:21;;;;;;;5.45;1.50;;;7.50;99.90;;;;;;5013441;28;20107;-74
2021/12/19 01:49:47;;;;;;;3.60;1.20;;;7.50;99.90;;;;;;5013044;28;20064;-73
2021/12/19 01:52:13;;;;;;;3.92;1.08;;;7.40;99.90;;;;;;5014757;28;20409;-74
2021/12/19 01:54:39;;;;;;;3.90;0.75;;;7.40;99.90;;;;;;5014292;28;20200;-74
2021/12/19 01:57:04;;;;;;;4.78;1.00;;;7.40;99.90;;;;;;5014123;28;20527;-74
2021/12/19 01:59:30;;;;;;;4.15;1.05;;;7.40;99.90;;;;;;5013262;28;20042;-73
2021/12/19 02:01:56;;;;;;;2.90;0.85;;;7.40;99.90;;;;;;5013601;28;20045;-73
2021/12/19 02:04:23;;;;;;;2.75;0.68;;;7.40;99.90;;;;;;5010389;28;20064;-73
2021/12/19 02:06:49;;;;;;;3.30;0.80;;;7.40;99.90;;;;;;5014590;28;20049;-74
2021/12/19 02:09:16;;;;;;;2.28;0.65;;;7.40;99.90;;;;;;5012736;28;20046;-74
2021/12/19 02:11:42;;;;;;;2.17;0.60;;;7.40;99.90;;;;;;5013346;28;20053;-74
2021/12/19 02:14:10;;;;;;;1.67;0.50;;;7.30;99.90;;;;;;5012609;28;20137;-74
2021/12/19 02:16:37;;;;;;;2.65;0.70;;;7.40;99.90;;;;;;5012825;28;20037;-74
2021/12/19 02:19:04;;;;;;;3.85;0.90;;;7.40;99.90;;;;;;5012384;28;20048;-74
2021/12/19 02:21:30;;;;;;;2.35;0.80;;;7.40;99.90;;;;;;5000342;28;20042;-74
2021/12/19 02:24:06;;;;;;;4.32;1.15;;;7.40;99.90;;;;;;5011739;28;20057;-73
2021/12/19 02:26:32;;;;;;;3.83;1.10;;;7.40;99.90;;;;;;5012256;28;20133;-74
2021/12/19 02:28:58;;;;;;;7.22;1.70;;;7.40;99.90;;;;;;5012240;28;20446;-74
2021/12/19 02:31:24;;;;;;;3.05;0.90;;;7.40;99.90;;;;;;5012350;28;20053;-73
2021/12/19 02:34:28;;;;;;;3.35;1.00;;;7.40;99.90;;;;;;5013131;28;20057;-74
2021/12/19 02:37:06;;;;;;;4.53;1.02;;;7.40;99.90;;;;;;5010284;28;20577;-73
2021/12/19 02:50:25;;;;;;;2.33;0.65;;;7.30;99.90;;;;;;5028009;28;20140;-74
2021/12/19 02:52:51;;;;;;;2.72;0.70;;;7.30;99.90;;;;;;5011292;28;20038;-74
2021/12/19 02:55:18;;;;;;;2.47;0.55;;;7.30;99.90;;;;;;5013577;28;20505;-74
2021/12/19 02:57:44;;;;;;;3.65;0.60;;;7.30;99.90;;;;;;5011148;28;20066;-74
2021/12/19 03:00:14;;;;;;;3.28;0.65;;;7.30;99.90;;;;;;5013660;28;20092;-74
2021/12/19 03:02:40;;;;;;;2.95;0.65;;;7.30;99.90;;;;;;5011787;28;20050;-73
2021/12/19 03:05:06;;;;;;;2.78;0.50;;;7.30;99.90;;;;;;5010731;28;20416;-74
2021/12/19 03:07:38;;;;;;;2.90;0.57;;;7.30;99.90;;;;;;5012131;28;20049;-74
2021/12/19 03:10:55;;;;;;;3.20;0.68;;;7.30;99.90;;;;;;5011674;28;20096;-73
2021/12/19 03:18:08;;;;;;;2.42;0.52;;;7.30;99.90;;;;;;5027482;28;20054;-74
2021/12/19 03:20:35;;;;;;;2.92;0.50;;;7.30;99.90;;;;;;5011961;28;20049;-74
2021/12/19 03:23:02;;;;;;;2.20;0.50;;;7.30;99.90;;;;;;5010911;28;20133;-74
2021/12/19 03:25:29;;;;;;;3.38;0.65;;;7.30;99.90;;;;;;5011527;28;20363;-74
2021/12/19 03:27:55;;;;;;;5.03;0.70;;;7.30;99.90;;;;;;5011199;28;20077;-74
2021/12/19 03:30:21;;;;;;;4.05;0.65;;;7.20;99.90;;;;;;5011994;28;20077;-74
2021/12/19 03:32:47;;;;;;;3.10;0.50;;;7.20;99.90;;;;;;5011364;28;20081;-74
2021/12/19 03:35:14;;;;;;;1.98;0.57;;;7.20;99.90;;;;;;5010838;28;20096;-74
2021/12/19 03:37:41;;;;;;;5.47;0.85;;;7.20;99.90;;;;;;5012227;28;20085;-74
2021/12/19 03:40:11;;;;;;;3.50;0.60;;;7.20;99.90;;;;;;5011180;28;20046;-74
2021/12/19 03:42:44;;;;;;;4.28;0.50;;;7.20;99.90;;;;;;5011398;28;20536;-74
2021/12/19 03:45:15;;;;;;;2.92;0.55;;;7.20;99.90;;;;;;4996571;28;20046;-74
2021/12/19 03:47:40;;;;;;;1.70;0.40;;;7.20;99.90;;;;;;5008812;28;20401;-74
2021/12/19 03:50:08;;;;;;;5.38;0.80;;;7.20;99.90;;;;;;5027322;28;20041;-74
2021/12/19 03:52:34;;;;;;;3.70;0.50;;;7.20;99.90;;;;;;5011056;28;20417;-74
2021/12/19 03:55:00;;;;;;;1.90;0.50;;;7.20;99.90;;;;;;5011056;28;20050;-74
2021/12/19 03:57:26;;;;;;;4.85;0.75;;;7.20;99.90;;;;;;5011106;28;20138;-74
2021/12/19 03:59:52;;;;;;;4.10;0.93;;;7.20;99.90;;;;;;5027580;28;20052;-74
2021/12/19 04:02:24;;;;;;;2.88;0.70;;;7.20;99.90;;;;;;5010046;28;20046;-74
2021/12/19 04:04:51;;;;;;;5.28;0.90;;;7.20;99.90;;;;;;5010300;28;20143;-74
2021/12/19 04:07:17;;;;;;;6.00;1.00;;;7.20;99.90;;;;;;5026851;28;20053;-74
2021/12/19 04:09:42;;;;;;;3.45;0.70;;;7.20;99.90;;;;;;5010267;28;20401;-74
2021/12/19 04:12:09;;;;;;;4.30;0.93;;;7.10;99.90;;;;;;5010541;28;20058;-74
2021/12/19 04:14:35;;;;;;;2.67;0.60;;;7.20;99.90;;;;;;5010265;28;20819;-73
2021/12/19 04:17:01;;;;;;;4.05;1.00;;;7.10;99.90;;;;;;5011489;28;20379;-74
2021/12/19 04:19:27;;;;;;;4.10;0.65;;;7.20;99.90;;;;;;5010904;28;20056;-74
2021/12/19 04:21:53;;;;;;;6.25;0.88;;;7.20;99.90;;;;;;5009710;28;20054;-74
2021/12/19 04:24:19;;;;;;;3.20;0.60;;;7.20;99.90;;;;;;5012009;28;20046;-74
2021/12/19 04:26:44;;;;;;;4.28;0.90;;;7.10;99.90;;;;;;5011497;28;20041;-74
2021/12/19 04:29:10;;;;;;;3.50;0.90;;;7.10;99.90;;;;;;5010276;28;20057;-74
2021/12/19 04:31:36;;;;;;;7.78;0.95;;;7.10;99.90;;;;;;5011457;28;20524;-74
2021/12/19 04:34:02;;;;;;;7.22;0.85;;;7.10;99.90;;;;;;5010451;28;20410;-73
2021/12/19 04:36:33;;;;;;;6.75;1.50;;;7.10;99.90;;;;;;5011301;28;20049;-74
2021/12/19 04:52:31;;;;;;;8.87;2.20;;;7.20;99.90;;;;;;5010358;28;20408;-74
2021/12/19 04:59:55;;;;;;;12.90;3.60;;;7.20;99.90;;;;;;5010123;28;20408;-74
2021/12/19 05:02:40;;;;;;;11.77;3.15;;;7.20;99.90;;;;;;5009865;28;20060;-75
2021/12/19 05:15:49;;;;;;;10.23;3.10;;;7.30;99.90;;;;;;5026043;28;20053;-75
2021/12/19 05:18:14;;;;;;;16.63;3.67;;;7.30;99.90;;;;;;5009977;28;20129;-74
2021/12/19 05:20:50;;;;;;;13.30;3.03;;;7.30;99.90;;;;;;5002891;28;20176;-74
2021/12/19 05:23:27;;;;;;;15.95;3.75;;;7.30;99.90;;;;;;5007984;28;20536;-75
2021/12/19 05:25:53;;;;;;;13.38;3.67;;;7.30;99.90;;;;;;5009072;28;20061;-74
2021/12/19 05:28:19;;;;;;;13.55;3.38;;;7.30;99.90;;;;;;5009280;28;20038;-74
2021/12/19 05:30:44;;;;;;;15.57;3.92;;;7.30;99.90;;;;;;5011330;28;20054;-75
2021/12/19 05:33:11;;;;;;;12.43;3.60;;;7.30;99.90;;;;;;5009106;28;20107;-74
2021/12/19 05:36:00;;;;;;;10.23;4.57;;;7.30;99.90;;;;;;5010942;28;20054;-75
2021/12/19 05:46:39;;;;;;;16.02;6.05;;;7.30;99.90;;;;;;5025688;28;20049;-75
2021/12/19 05:49:06;;;;;;;19.42;6.35;;;7.30;99.90;;;;;;5009194;28;20108;-75
2021/12/19 05:51:33;;;;;;;15.63;5.13;;;7.30;99.90;;;;;;5026077;28;20125;-75
2021/12/19 05:53:59;;;;;;;17.77;5.35;;;7.30;99.90;;;;;;5008509;28;20046;-75
2021/12/19 05:56:25;;;;;;;14.63;6.43;;;7.30;99.90;;;;;;5008708;28;22134;-75
2021/12/19 05:58:51;;;;;;;19.73;8.50;;;7.30;99.90;;;;;;5008829;28;20053;-74
2021/12/19 06:01:17;;;;;;;19.33;6.13;;;7.30;99.90;;;;;;5009511;28;20053;-74
2021/12/19 06:03:42;;;;;;;19.63;6.40;;;7.30;99.90;;;;;;5009032;28;20044;-75
2021/12/19 06:06:08;;;;;;;18.17;5.97;;;7.30;99.90;;;;;;5007742;28;20058;-75
2021/12/19 06:08:33;;;;;;;19.52;6.93;;;7.30;99.90;;;;;;5010032;28;20111;-74
2021/12/19 06:10:59;;;;;;;22.83;9.90;;;7.30;99.90;;;;;;5009498;28;20061;-75
2021/12/19 06:13:25;;;;;;;20.98;7.75;;;7.30;99.90;;;;;;5008752;28;20477;-74
2021/12/19 06:15:53;;;;;;;26.45;8.85;;;7.30;99.90;;;;;;5008790;28;20379;-74
2021/12/19 06:18:19;;;;;;;19.65;6.30;;;7.30;99.90;;;;;;5010022;28;20721;-74
2021/12/19 06:20:44;;;;;;;18.63;6.65;;;7.30;99.90;;;;;;5009463;28;20057;-74
2021/12/19 06:23:10;;;;;;;17.73;7.55;;;7.30;99.90;;;;;;5007902;28;20037;-75
2021/12/19 06:25:36;;;;;;;15.13;5.05;;;7.30;99.90;;;;;;5011826;28;20432;-75
2021/12/19 06:28:02;;;;;;;16.15;6.88;;;7.30;99.90;;;;;;5011786;28;20125;-73
2021/12/19 06:30:29;;;;;;;15.02;6.07;;;7.30;99.90;;;;;;5013170;28;20085;-75
2021/12/19 06:32:56;;;;;;;17.30;5.93;;;7.30;99.90;;;;;;5013940;28;20447;-75
2021/12/19 06:35:22;;;;;;;14.05;5.07;;;7.30;99.90;;;;;;5012814;28;20539;-75
2021/12/19 06:37:49;;;;;;;15.82;5.65;;;7.30;99.90;;;;;;5013934;28;20748;-75
2021/12/19 06:40:18;;;;;;;20.85;7.57;;;7.30;99.90;;;;;;5014743;28;20382;-75
2021/12/19 06:42:44;;;;;;;20.02;6.80;;;7.30;99.90;;;;;;5022462;28;20145;-73
2021/12/19 06:45:10;;;;;;;21.83;6.75;;;7.30;99.90;;;;;;5014478;28;20042;-74
2021/12/19 06:47:36;;;;;;;18.63;6.88;;;7.30;99.90;;;;;;5011350;28;20088;-74
2021/12/19 06:50:02;;;;;;;18.50;6.57;;;7.30;99.90;;;;;;5010117;28;20041;-74
2021/12/19 06:52:28;;;;;;;22.20;6.93;;;7.30;99.90;;;;;;5011481;28;20046;-72
2021/12/19 06:54:53;;;;;;;35.33;14.63;;;7.30;99.90;;;;;;5013722;28;20079;-74
2021/12/19 06:57:19;;;;;;;37.15;15.45;;;7.30;99.90;;;;;;5011197;28;20084;-74
2021/12/19 06:59:47;;;;;;;21.40;9.55;;;7.30;99.90;;;;;;5012127;28;20042;-73
2021/12/19 07:02:16;;;;;;;16.92;6.88;;;7.30;99.90;;;;;;5012806;28;20077;-72
2021/12/19 07:04:43;;;;;;;27.17;9.30;;;7.30;99.90;;;;;;5012953;28;20080;-73
2021/12/19 07:07:09;;;;;;;17.17;7.40;;;7.30;99.90;;;;;;5011649;28;20096;-73
2021/12/19 07:09:35;;;;;;;18.38;7.65;;;7.30;99.90;;;;;;5011626;28;20041;-73
2021/12/19 07:12:01;;;;;;;17.52;5.50;;;7.30;99.90;;;;;;5008920;28;20132;-73
2021/12/19 07:14:27;;;;;;;15.65;6.30;;;7.30;99.90;;;;;;5013126;28;20440;-73
2021/12/19 07:16:53;;;;;;;22.42;7.47;;;7.30;99.90;;;;;;5011804;28;20056;-73
2021/12/19 07:19:18;;;;;;;19.55;5.15;;;7.30;99.90;;;;;;5011115;28;20049;-73
2021/12/19 07:21:44;;;;;;;19.10;7.93;;;7.30;99.90;;;;;;5012579;28;20129;-73
2021/12/19 07:24:09;;;;;;;19.98;5.38;;;7.30;99.90;;;;;;5009187;28;20042;-73
2021/12/19 07:26:35;;;;;;;17.35;6.07;;;7.30;99.90;;;;;;5011620;28;20100;-73
2021/12/19 07:29:00;;;;;;;30.17;13.02;;;7.30;99.90;;;;;;5013238;28;20448;-73
2021/12/19 07:31:29;;;;;;;16.25;4.82;;;7.30;99.90;;;;;;5011025;28;20421;-73
2021/12/19 07:33:55;;;;;;;13.63;4.78;;;7.30;99.90;;;;;;5012889;28;20041;-73
2021/12/19 07:36:24;;;;;;;11.63;3.58;;;7.30;99.90;;;;;;5012535;28;20048;-73
2021/12/19 07:39:00;;;;;;;27.90;10.25;;;7.30;99.90;;;;;;5010984;28;20046;-74
2021/12/19 07:41:26;;;;;;;13.40;4.40;;;7.30;99.90;;;;;;5012719;28;20156;-74
2021/12/19 07:43:52;;;;;;;11.75;3.17;;;7.30;99.90;;;;;;5011305;28;20132;-74
2021/12/19 07:46:17;;;;;;;16.60;4.05;;;7.30;99.90;;;;;;5013326;28;20519;-74
2021/12/19 07:48:43;;;;;;;17.38;4.00;;;7.30;99.90;;;;;;5011913;28;20044;-74
2021/12/19 07:51:08;;;;;;;13.68;3.38;;;7.30;99.90;;;;;;5028689;28;20053;-74
2021/12/19 07:53:34;;;;;;;17.00;4.78;;;7.30;99.90;;;;;;5012797;28;20389;-73
2021/12/19 07:56:00;;;;;;;23.27;8.70;;;7.30;99.90;;;;;;5012737;28;20064;-74
2021/12/19 07:58:26;;;;;;;13.50;3.95;;;7.30;99.90;;;;;;5013274;28;20042;-74
2021/12/19 08:00:52;;;;;;;12.65;6.22;;;7.30;99.90;;;;;;5010323;28;20505;-74
2021/12/19 08:03:17;;;;;;;21.65;3.92;;;7.30;99.90;;;;;;5012964;28;20073;-73
2021/12/19 08:05:43;;;;;;;16.55;3.55;;;7.30;99.90;;;;;;5013249;28;20068;-73
2021/12/19 08:08:10;;;;;;;11.60;3.65;;;7.30;99.90;;;;;;5011127;28;20493;-74
2021/12/19 08:13:05;;;;;;;20.20;5.30;;;7.30;99.90;;;;;;5026979;28;20417;-74
2021/12/19 08:15:34;;;;;;;12.82;3.80;;;7.30;99.90;;;;;;5008577;28;20049;-73
2021/12/19 08:18:00;;;;;;;17.88;5.50;;;7.30;99.90;;;;;;5009146;28;20038;-74
2021/12/19 08:20:27;;;;;;;12.68;4.00;;;7.30;99.90;;;;;;5006423;28;20045;-74
2021/12/19 08:22:56;;;;;;;16.30;3.08;;;7.30;99.90;;;;;;5012453;28;20050;-74
2021/12/19 08:25:23;;;;;;;15.88;3.42;;;7.30;99.90;;;;;;5010397;28;20033;-74
2021/12/19 08:27:49;;;;;;;12.32;3.75;;;7.30;99.90;;;;;;5009444;28;20551;-74
2021/12/19 08:30:16;;;;;;;14.75;3.40;;;7.30;99.90;;;;;;5010804;28;20042;-74
2021/12/19 08:32:42;;;;;;;17.60;3.25;;;7.30;99.90;;;;;;5011310;28;20099;-75
2021/12/19 08:35:09;;;;;;;13.13;3.00;;;7.30;99.90;;;;;;5011733;28;20048;-75
2021/12/19 08:37:35;;;;;;;11.23;2.85;;;7.30;99.90;;;;;;5010957;28;20046;-73
2021/12/19 08:40:01;;;;;;;15.18;5.03;;;7.30;99.90;;;;;;5010345;28;20046;-75
2021/12/19 08:42:28;;;;;;;21.40;6.38;;;7.30;99.90;;;;;;5011293;28;20045;-74
2021/12/19 08:44:54;;;;;;;17.60;4.18;;;7.30;99.90;;;;;;5010679;28;20379;-74
2021/12/19 08:47:20;;;;;;;16.08;5.18;;;7.30;99.90;;;;;;5007107;28;20033;-74
2021/12/19 08:49:46;;;;;;;16.75;4.07;;;7.30;99.90;;;;;;5011673;28;20042;-74
2021/12/19 08:52:11;;;;;;;14.20;3.58;;;7.30;99.90;;;;;;5012288;28;20038;-74
2021/12/19 08:54:37;;;;;;;14.55;4.00;;;7.30;99.90;;;;;;5011485;28;20186;-74
2021/12/19 08:57:04;;;;;;;14.38;4.03;;;7.30;99.90;;;;;;5010041;28;20058;-74
2021/12/19 08:59:29;;;;;;;14.90;4.03;;;7.30;99.90;;;;;;5011869;28;20041;-73
2021/12/19 09:01:59;;;;;;;14.90;3.80;;;7.30;99.90;;;;;;5011667;28;20117;-74
2021/12/19 09:04:25;;;;;;;16.42;3.50;;;7.30;99.90;;;;;;5010311;28;20034;-74
2021/12/19 09:06:50;;;;;;;14.02;3.28;;;7.30;99.90;;;;;;5010271;28;20137;-76
2021/12/19 09:09:16;;;;;;;17.17;4.07;;;7.40;99.90;;;;;;5010579;28;20038;-75
2021/12/19 09:11:42;;;;;;;11.95;3.88;;;7.40;99.90;;;;;;5009835;28;20061;-74
2021/12/19 09:14:08;;;;;;;13.27;3.55;;;7.40;99.90;;;;;;5009055;28;20089;-74
2021/12/19 09:16:34;;;;;;;21.02;3.58;;;7.40;99.90;;;;;;5013828;28;20259;-75
2021/12/19 09:18:59;;;;;;;9.25;3.10;;;7.40;99.90;;;;;;5009607;28;20050;-74
2021/12/19 09:21:25;;;;;;;13.27;3.65;;;7.40;99.90;;;;;;5012328;28;20050;-74
2021/12/19 09:23:50;;;;;;;10.25;3.20;;;7.40;99.90;;;;;;5009703;28;20033;-74
2021/12/19 09:26:16;;;;;;;15.20;3.30;;;7.40;99.90;;;;;;5009988;28;20049;-75
2021/12/19 09:28:42;;;;;;;11.27;2.97;;;7.40;99.90;;;;;;5026617;28;20396;-75
2021/12/19 09:31:08;;;;;;;15.02;3.05;;;7.40;99.90;;;;;;5011679;28;20053;-74
2021/12/19 09:33:34;;;;;;;9.90;2.85;;;7.40;99.90;;;;;;5010549;28;20042;-74
2021/12/19 09:35:59;;;;;;;20.98;5.15;;;7.40;99.90;;;;;;5011549;28;20026;-74
2021/12/19 09:38:26;;;;;;;10.30;2.92;;;7.40;99.90;;;;;;5010503;28;20187;-75
2021/12/19 09:40:58;;;;;;;10.02;4.13;;;7.40;99.90;;;;;;5010322;28;20132;-75
2021/12/19 09:43:43;;;;;;;54.03;23.33;;;7.50;99.90;;;;;;5012056;28;20050;-74
2021/12/19 09:46:15;;;;;;;27.70;11.82;;;7.50;99.90;;;;;;5005177;28;20044;-75
2021/12/19 09:48:43;;;;;;;28.17;12.57;;;7.50;99.90;;;;;;5011706;28;20069;-75
2021/12/19 09:51:10;;;;;;;14.18;4.68;;;7.50;99.90;;;;;;5010727;28;20050;-74
2021/12/19 09:53:37;;;;;;;21.58;10.55;;;7.50;99.90;;;;;;5009975;28;20042;-75
2021/12/19 09:56:03;;;;;;;14.10;5.68;;;7.50;99.90;;;;;;5010277;28;20640;-75
2021/12/19 09:58:34;;;;;;;17.05;3.92;;;7.50;99.90;;;;;;5009841;28;20034;-74
2021/12/19 10:01:04;;;;;;;14.35;3.85;;;7.50;99.90;;;;;;4998165;28;20049;-74
2021/12/19 10:03:30;;;;;;;9.77;4.07;;;7.50;99.90;;;;;;5015740;28;20046;-75
2021/12/19 10:06:12;;;;;;;11.00;3.92;;;7.50;99.90;;;;;;5013055;28;20404;-75
2021/12/19 10:08:37;;;;;;;16.33;4.65;;;7.50;99.90;;;;;;5013201;28;20038;-75
2021/12/19 10:11:12;;;;;;;17.25;3.78;;;7.50;99.90;;;;;;5013275;28;20405;-75
2021/12/19 10:13:38;;;;;;;18.35;5.28;;;7.50;99.90;;;;;;5012331;28;20133;-74
2021/12/19 10:16:26;;;;;;;10.13;3.30;;;7.50;99.90;;;;;;5029101;28;20449;-74
2021/12/19 10:18:54;;;;;;;12.30;4.60;;;7.60;99.90;;;;;;5013113;28;20053;-74
2021/12/19 10:21:20;;;;;;;13.50;3.30;;;7.50;99.90;;;;;;5013927;28;20038;-75
2021/12/19 10:23:47;;;;;;;16.52;4.53;;;7.60;99.90;;;;;;5013682;28;20038;-75
2021/12/19 10:26:13;;;;;;;12.18;4.50;;;7.60;99.90;;;;;;5015168;28;20053;-74
2021/12/19 10:28:52;;;;;;;17.27;4.65;;;7.60;99.90;;;;;;5011714;28;20041;-75
2021/12/19 10:31:18;;;;;;;18.70;4.05;;;7.60;99.90;;;;;;5013303;28;20041;-75
2021/12/19 10:33:46;;;;;;;18.73;5.43;;;7.60;99.90;;;;;;5014363;28;20501;-75
2021/12/19 10:36:12;;;;;;;21.33;5.13;;;7.70;99.90;;;;;;5029876;28;20092;-75
2021/12/19 10:38:46;;;;;;;20.70;5.60;;;7.70;99.90;;;;;;5014384;28;20394;-75
2021/12/19 10:41:13;;;;;;;15.98;3.85;;;7.70;99.90;;;;;;5012638;28;20108;-75
2021/12/19 10:44:06;;;;;;;11.32;4.05;;;7.70;99.90;;;;;;5013925;28;20121;-74
2021/12/19 10:46:37;;;;;;;13.05;3.60;;;7.70;99.90;;;;;;5014418;28;20059;-74
2021/12/19 10:49:04;;;;;;;15.10;4.35;;;7.70;99.90;;;;;;5014459;28;20378;-75
2021/12/19 10:51:32;;;;;;;14.60;4.20;;;7.70;99.90;;;;;;5011457;28;20056;-74
2021/12/19 10:54:03;;;;;;;13.85;3.83;;;7.70;99.90;;;;;;5012834;28;20049;-75
2021/12/19 10:56:35;;;;;;;11.80;4.03;;;7.70;99.90;;;;;;5011448;28;20133;-74
2021/12/19 10:59:05;;;;;;;11.10;4.53;;;7.70;99.90;;;;;;5011205;28;20397;-76
2021/12/19 11:01:36;;;;;;;10.00;3.42;;;7.70;99.90;;;;;;5011549;28;20056;-73
2021/12/19 11:04:17;;;;;;;15.82;5.60;;;7.80;99.90;;;;;;5012633;28;20496;-73
2021/12/19 11:06:48;;;;;;;16.45;7.43;;;7.70;99.90;;;;;;5014198;28;20120;-74
2021/12/19 11:09:18;;;;;;;13.50;4.78;;;7.80;99.90;;;;;;5012251;28;20100;-74
2021/12/19 11:11:47;;;;;;;11.38;2.97;;;7.80;99.90;;;;;;5011732;28;20053;-74
2021/12/19 11:14:14;;;;;;;12.77;2.30;;;7.80;99.90;;;;;;5011590;28;20050;-73
2021/12/19 11:16:40;;;;;;;11.63;2.70;;;7.80;99.90;;;;;;5010997;28;20057;-73
2021/12/19 11:19:06;;;;;;;10.88;2.70;;;7.80;99.90;;;;;;5007480;28;20172;-73
2021/12/19 11:21:34;;;;;;;13.65;2.60;;;7.80;99.90;;;;;;5011522;28;20145;-73
2021/12/19 11:24:09;;;;;;;16.23;3.13;;;7.90;99.90;;;;;;5012835;28;20041;-73
2021/12/19 11:26:37;;;;;;;11.23;2.58;;;7.80;99.90;;;;;;5010696;28;20038;-73
2021/12/19 11:29:04;;;;;;;16.35;2.53;;;7.90;99.90;;;;;;5012410;28;20046;-74
2021/12/19 11:31:31;;;;;;;20.85;3.83;;;7.90;99.90;;;;;;5011868;28;20045;-73
2021/12/19 11:34:02;;;;;;;10.52;2.72;;;7.90;99.90;;;;;;5011982;28;20491;-74
2021/12/19 11:36:32;;;;;;;15.25;3.30;;;7.90;99.90;;;;;;5013778;28;20042;-73
2021/12/19 11:39:01;;;;;;;13.88;2.80;;;7.90;99.90;;;;;;5011578;28;20053;-73
2021/12/19 11:41:27;;;;;;;16.35;3.67;;;7.90;99.90;;;;;;5012196;28;20129;-74
2021/12/19 11:43:56;;;;;;;15.73;2.97;;;7.90;99.90;;;;;;5013106;28;20512;-74
2021/12/19 11:46:42;;;;;;;27.80;9.80;;;7.90;99.90;;;;;;5013314;28;20099;-73
2021/12/19 11:49:21;;;;;;;17.25;2.78;;;7.90;99.90;;;;;;5010069;28;20042;-76
2021/12/19 11:51:47;;;;;;;19.10;2.67;;;7.90;99.90;;;;;;4999176;28;20046;-76
2021/12/19 11:54:16;;;;;;;18.58;4.20;;;7.90;99.90;;;;;;5013368;28;20156;-76
2021/12/19 11:57:08;;;;;;;14.55;3.95;;;8.00;99.90;;;;;;5012742;28;20392;-74
2021/12/19 11:59:36;;;;;;;18.70;6.20;;;8.00;99.90;;;;;;5002226;28;20077;-78
2021/12/19 12:02:22;;;;;;;16.77;2.90;;;8.00;99.90;;;;;;5012978;28;20486;-73
2021/12/19 12:05:20;;;;;;;15.30;2.90;;;8.00;99.90;;;;;;5012632;28;20121;-74
2021/12/19 12:08:04;;;;;;;11.30;2.45;;;8.00;99.90;;;;;;5008865;28;20469;-73
2021/12/19 12:10:54;;;;;;;13.40;2.90;;;8.00;99.90;;;;;;5011549;28;20042;-74
2021/12/19 12:13:34;;;;;;;15.02;2.83;;;8.00;99.90;;;;;;5002007;28;20481;-73
2021/12/19 12:16:23;;;;;;;15.02;2.88;;;8.00;99.90;;;;;;5010870;28;20119;-74
2021/12/19 12:19:03;;;;;;;12.60;4.03;;;8.00;99.90;;;;;;5011950;28;20054;-74
2021/12/19 12:21:40;;;;;;;16.85;2.38;;;8.00;99.90;;;;;;5013006;28;20049;-74
2021/12/19 12:24:12;;;;;;;12.98;2.92;;;8.00;99.90;;;;;;5011930;28;20046;-74
2021/12/19 12:26:53;;;;;;;12.73;2.70;;;8.00;99.90;;;;;;5010926;28;20092;-74
2021/12/19 12:29:20;;;;;;;7.65;2.50;;;8.00;99.90;;;;;;5011360;28;20050;-74
2021/12/19 12:31:47;;;;;;;19.27;2.75;;;8.00;99.90;;;;;;5011739;28;20057;-74
2021/12/19 12:34:14;;;;;;;18.33;3.25;;;8.10;99.90;;;;;;5011492;28;20073;-74
2021/12/19 12:36:40;;;;;;;13.43;3.17;;;8.00;99.90;;;;;;5013080;28;20042;-74
2021/12/19 12:39:10;;;;;;;15.07;2.75;;;8.00;99.90;;;;;;5007763;28;20496;-74
2021/12/19 12:44:11;;;;;;;19.05;3.10;;;8.00;99.90;;;;;;4992041;28;20082;-74
2021/12/19 12:46:37;;;;;;;13.63;2.40;;;8.10;99.90;;;;;;5011161;28;20050;-74
2021/12/19 12:49:05;;;;;;;21.50;3.13;;;8.10;99.90;;;;;;5010850;28;20053;-74
2021/12/19 12:51:58;;;;;;;15.43;2.67;;;8.00;99.90;;;;;;5011455;28;20050;-74
2021/12/19 12:54:30;;;;;;;17.65;3.33;;;8.10;99.90;;;;;;5011395;28;20069;-74
2021/12/19 12:56:58;;;;;;;13.40;2.63;;;8.10;99.90;;;;;;5011738;28;20092;-74
2021/12/19 12:59:29;;;;;;;20.33;3.15;;;8.10;99.90;;;;;;5010953;28;20046;-74
2021/12/19 13:04:49;;;;;;;16.95;2.92;;;8.10;99.90;;;;;;5011737;28;20482;-74
2021/12/19 13:07:20;;;;;;;11.07;2.85;;;8.00;99.90;;;;;;5012518;28;20038;-74
2021/12/19 13:09:57;;;;;;;14.65;2.95;;;8.00;99.90;;;;;;5011695;28;20096;-74
2021/12/19 13:12:28;;;;;;;15.68;2.70;;;8.10;99.90;;;;;;5010099;28;20072;-79
2021/12/19 13:15:09;;;;;;;26.88;4.22;;;8.00;99.90;;;;;;5008947;28;20034;-78
2021/12/19 13:17:40;;;;;;;14.80;2.47;;;8.00;99.90;;;;;;5008064;28;20050;-77
2021/12/19 13:20:13;;;;;;;17.88;2.47;;;8.00;99.90;;;;;;5010416;28;20084;-78
2021/12/19 13:22:39;;;;;;;15.80;3.08;;;8.00;99.90;;;;;;5012700;28;20038;-77
2021/12/19 13:25:22;;;;;;;13.98;2.20;;;8.00;99.90;;;;;;5008863;28;20053;-78
2021/12/19 13:27:53;;;;;;;15.57;3.28;;;8.00;99.90;;;;;;5005211;28;20046;-79
2021/12/19 13:30:20;;;;;;;16.48;2.95;;;8.00;99.90;;;;;;5007816;28;20041;-79
2021/12/19 13:32:49;;;;;;;14.50;2.55;;;8.00;99.90;;;;;;5008468;28;20030;-78
2021/12/19 13:35:23;;;;;;;19.85;5.78;;;8.00;99.90;;;;;;5012276;28;20054;-77
2021/12/19 13:37:55;;;;;;;8.75;2.83;;;8.00;99.90;;;;;;5012856;28;20053;-78
2021/12/19 13:40:33;;;;;;;16.35;5.00;;;8.00;99.90;;;;;;5015062;28;20046;-78
2021/12/19 13:43:11;;;;;;;16.33;6.20;;;8.00;99.90;;;;;;5026510;28;20085;-77
2021/12/19 13:45:47;;;;;;;22.17;3.80;;;8.00;99.90;;;;;;5015479;28;20481;-77
2021/12/19 13:48:19;;;;;;;18.48;3.70;;;8.00;99.90;;;;;;5012892;28;20128;-77
2021/12/19 13:50:52;;;;;;;13.65;2.75;;;8.00;99.90;;;;;;5011921;28;20240;-77
2021/12/19 13:53:18;;;;;;;17.73;3.78;;;8.00;99.90;;;;;;5011957;28;20591;-77
2021/12/19 13:55:56;;;;;;;14.48;3.90;;;8.00;99.90;;;;;;5013169;28;20045;-77
2021/12/19 13:58:26;;;;;;;12.70;2.20;;;8.00;99.90;;;;;;5012526;28;20056;-77
2021/12/19 14:00:53;;;;;;;14.93;3.33;;;8.00;99.90;;;;;;5013402;28;20124;-77
2021/12/19 14:03:43;;;;;;;19.92;3.17;;;8.10;99.90;;;;;;5013696;28;20084;-77
2021/12/19 14:06:10;;;;;;;12.48;3.20;;;8.10;99.90;;;;;;5011690;28;20050;-77